Ana Sayfa
METAR-TAF:

METAR-TAF

Havaalanları :

Hawthorne, Kaliforniya, Amerika Birleşik Devletleri

Enlem: 33-55-25N, Boylam: 118-19-55W, yükseklik: 19 m

Güncel hava durumu gözlemi

Rapor saat 01:53 UTC de 1 saat ve 8 dakika önce yapıldı.
Rüzgar batıdan 12 kt
Sıcaklık 18°C
Nem 56%
Basınç 1013 hPa
Görüş mesafesi: 16.1 km
Açık gökyüzü

METAR: KHHR 250153Z 27012KT 10SM CLR 18/09 A2990 RMK AO2 SLP124 T01780089

Saat: 20:01 (03:01 UTC)


TAF: eksik

4.000'den fazla havaalanı için hava durumu gözlemleri ve tahminleri (METAR ve TAF raporları).

Kullanılabilir istasyonlar harita üzerinde sarı ve kırmızı noktalarla gösterilir.

İstasyonun adını görmek için fareyi noktanın üzerinde gezdirin.

Sonrasında hava gözlem ve tahminlerini görmek için tıklayın.

Haritayı değiştirmek için: yaklaştırmak için siyah artı işaretli yeşil düğmeye ve uzaklaştırmak için de eksi işaretli düğmeye hızla tıklayın; bitişik haritalar için yeşil okları kullanın.


METAR-TAF: